Terminal Aerodrome Forecast
Issued by NWS Milwaukee/Sullivan, WI

Home | Current Version | Previous Version | Text Only | Print | Product List | Glossary On
Versions: 1 2 3 4 5 6 7 8 9 10 11 12 13 14 15 16 17 18 19 20 21 22 23 24 25 26 27 28 29 30 31 32 33 34 35 36 37 38 39 40 41 42 43 44 45 46 47 48 49 50
000
FTUS43 KMKX 020412 AAA
TAFMSN
TAF AMD
KMSN 020412Z 0204/0224 16006KT P6SM -SHRA OVC050
     FM020600 16006KT 5SM -SHRA BR BKN040 OVC070
     FM020900 16005KT 3SM BR SCT008 BKN025
      TEMPO 0210/0214 2SM -DZ BR BKN007 OVC015
     FM021600 17005KT 6SM BR SCT025 BKN040
     FM021800 16007KT P6SM VCTS SCT020 BKN040CB
     FM022200 12009KT 4SM -TSRA BR SCT006 OVC016CB=

USA.gov is the U.S. government's official web portal to all federal, state and local government web resources and services.